createdAt,value
2023-12-26T00:00:47.715Z,97989.02
2023-12-26T00:05:53.611Z,97988.93
2023-12-26T00:10:59.358Z,97983.15
2023-12-26T00:16:05.126Z,97989.09
2023-12-26T00:21:10.755Z,97981.13
2023-12-26T00:26:16.471Z,97976.98
2023-12-26T00:31:22.079Z,97976.55
2023-12-26T00:36:27.703Z,97975.98
2023-12-26T00:41:33.442Z,97975.80
2023-12-26T00:46:39.175Z,97975.44
2023-12-26T00:51:44.878Z,97981.22
2023-12-26T00:56:50.709Z,97977.80
2023-12-26T01:01:58.647Z,97974.58
2023-12-26T01:07:04.337Z,97977.45
2023-12-26T01:12:10.625Z,97978.73
2023-12-26T01:17:16.319Z,97978.84
2023-12-26T01:22:21.970Z,97980.46
2023-12-26T01:27:27.734Z,97994.97
2023-12-26T01:32:34.127Z,97990.17
2023-12-26T01:37:39.853Z,97987.09
2023-12-26T01:42:47.725Z,97978.61
2023-12-26T01:47:58.061Z,97970.80
2023-12-26T01:53:04.869Z,97975.42
2023-12-26T01:58:10.800Z,97972.23
2023-12-26T02:03:16.766Z,97969.83
2023-12-26T02:08:23.905Z,97965.75
2023-12-26T02:13:29.632Z,97969.91
2023-12-26T02:18:36.307Z,97963.95
2023-12-26T02:23:43.187Z,97954.08
2023-12-26T02:28:49.819Z,97941.56
2023-12-26T02:33:56.372Z,97932.31
2023-12-26T02:39:03.929Z,97919.17
2023-12-26T02:44:10.033Z,97916.05
2023-12-26T02:49:15.810Z,97913.24
2023-12-26T02:54:21.553Z,97913.63
2023-12-26T02:59:27.225Z,97908.22
2023-12-26T03:04:32.891Z,97904.15
2023-12-26T03:09:38.680Z,97894.46
2023-12-26T03:14:44.487Z,97887.14
2023-12-26T03:19:50.358Z,97888.39
2023-12-26T03:24:55.996Z,97886.61
2023-12-26T03:30:01.890Z,97870.63
2023-12-26T03:35:08.865Z,97861.48
2023-12-26T03:40:15.550Z,97850.45
2023-12-26T03:45:21.349Z,97847.44
2023-12-26T03:50:28.013Z,97849.77
2023-12-26T03:55:34.403Z,97837.44
2023-12-26T04:00:49.290Z,97831.88
2023-12-26T04:05:55.181Z,97820.75
2023-12-26T04:11:00.883Z,97810.96
2023-12-26T04:16:07.812Z,97796.09
2023-12-26T04:21:13.661Z,97796.34
2023-12-26T04:26:19.364Z,97791.86
2023-12-26T04:31:27.203Z,97787.91
2023-12-26T04:36:37.471Z,97780.85
2023-12-26T04:41:43.267Z,97772.05
2023-12-26T04:46:49.195Z,97768.73
2023-12-26T04:51:54.816Z,97773.77
2023-12-26T04:57:01.157Z,97770.86
2023-12-26T05:02:07.461Z,97758.96
2023-12-26T05:07:13.190Z,97754.08
2023-12-26T05:12:18.979Z,97751.91
2023-12-26T05:17:24.613Z,97754.08
2023-12-26T05:22:30.249Z,97753.23
2023-12-26T05:27:35.845Z,97741.31
2023-12-26T05:32:41.892Z,97744.83
2023-12-26T05:37:47.807Z,97735.87
2023-12-26T05:42:55.486Z,97732.63
2023-12-26T05:48:02.628Z,97726.55
2023-12-26T05:53:08.692Z,97732.14
2023-12-26T05:58:14.348Z,97738.51
2023-12-26T06:03:20.091Z,97725.65
2023-12-26T06:08:26.396Z,97728.90
2023-12-26T06:13:32.200Z,97722.80
2023-12-26T06:18:38.155Z,97718.25
2023-12-26T06:23:44.763Z,97730.98
2023-12-26T06:28:50.415Z,97731.72
2023-12-26T06:33:56.199Z,97740.77
2023-12-26T06:39:02.587Z,97745.64
2023-12-26T06:44:08.513Z,97745.81
2023-12-26T06:49:18.261Z,97755.80
2023-12-26T06:54:24.333Z,97756.27
2023-12-26T06:59:29.900Z,97768.18
2023-12-26T07:04:35.787Z,97777.98
2023-12-26T07:09:41.668Z,97787.35
2023-12-26T07:14:47.614Z,97800.39
2023-12-26T07:19:53.323Z,97806.27
2023-12-26T07:24:59.025Z,97807.89
2023-12-26T07:30:05.313Z,97815.24
2023-12-26T07:35:12.211Z,97812.05
2023-12-26T07:40:18.713Z,97817.66
2023-12-26T07:45:26.320Z,97823.10
2023-12-26T07:50:32.091Z,97830.42
2023-12-26T07:55:38.005Z,97830.09
2023-12-26T08:00:45.118Z,97837.23
2023-12-26T08:05:51.057Z,97838.14
2023-12-26T08:10:57.054Z,97842.83
2023-12-26T08:16:04.271Z,97853.58
2023-12-26T08:21:10.001Z,97858.39
2023-12-26T08:26:15.762Z,97855.41
2023-12-26T08:31:21.935Z,97851.48
2023-12-26T08:36:27.045Z,97849.73
2023-12-26T08:41:32.874Z,97854.82
2023-12-26T08:46:40.421Z,97857.61
2023-12-26T08:51:46.076Z,97872.34
2023-12-26T08:56:52.222Z,97886.61
2023-12-26T09:01:57.980Z,97894.72
2023-12-26T09:07:05.202Z,97890.64
2023-12-26T09:12:11.204Z,97905.64
2023-12-26T09:17:15.391Z,97915.63
2023-12-26T09:22:21.116Z,97917.61
2023-12-26T09:27:26.887Z,97914.16
2023-12-26T09:32:32.676Z,97911.11
2023-12-26T09:37:40.469Z,97920.30
2023-12-26T09:42:46.516Z,97917.65
2023-12-26T09:47:53.317Z,97927.16
2023-12-26T09:53:06.289Z,97922.95
2023-12-26T09:58:12.765Z,97918.25
2023-12-26T10:03:19.565Z,97918.30
2023-12-26T10:08:25.282Z,97926.80
2023-12-26T10:13:44.287Z,97925.14
2023-12-26T10:18:51.935Z,97920.91
2023-12-26T10:23:59.890Z,97928.66
2023-12-26T10:29:06.229Z,97928.42
2023-12-26T10:34:21.895Z,97932.29
2023-12-26T10:39:28.473Z,97938.10
2023-12-26T10:44:52.875Z,97942.42
2023-12-26T10:50:00.894Z,97957.02
2023-12-26T10:55:10.227Z,97960.48
2023-12-26T11:00:53.284Z,97966.96
2023-12-26T11:06:58.290Z,97969.05
2023-12-26T11:13:03.605Z,97974.21
2023-12-26T11:19:09.352Z,97978.89
2023-12-26T11:25:14.542Z,97991.38
2023-12-26T11:31:19.615Z,98000.91
2023-12-26T11:37:24.249Z,98010.12
2023-12-26T11:43:29.769Z,98004.66
2023-12-26T11:49:34.483Z,98010.84
2023-12-26T11:55:39.393Z,98010.89
2023-12-26T12:01:44.456Z,98015.16
2023-12-26T12:07:49.645Z,98023.08
2023-12-26T12:13:54.524Z,98019.49
2023-12-26T12:19:59.717Z,98024.45
2023-12-26T12:26:04.473Z,98037.13
2023-12-26T12:32:09.424Z,98038.80
2023-12-26T12:38:14.554Z,98043.45
2023-12-26T12:44:19.544Z,98040.34
2023-12-26T12:50:24.435Z,98044.02
2023-12-26T12:56:29.636Z,98046.64
2023-12-26T13:02:34.427Z,98051.50
2023-12-26T13:08:41.047Z,98055.55
2023-12-26T13:14:46.589Z,98058.84
2023-12-26T13:20:51.555Z,98065.83
2023-12-26T13:26:57.519Z,98074.05
2023-12-26T13:33:02.892Z,98081.45
2023-12-26T13:39:07.700Z,98089.51
2023-12-26T13:45:12.523Z,98096.15
2023-12-26T13:51:17.795Z,98098.77
2023-12-26T13:56:23.416Z,98106.65
2023-12-26T14:02:04.344Z,98115.98
2023-12-26T14:07:46.297Z,98121.60
2023-12-26T14:13:26.897Z,98136.98
2023-12-26T14:19:07.404Z,98141.92
2023-12-26T14:24:48.049Z,98150.50
2023-12-26T14:30:28.429Z,98154.50
2023-12-26T14:36:08.777Z,98154.77
2023-12-26T14:41:49.241Z,98163.55
2023-12-26T14:47:29.459Z,98174.64
2023-12-26T14:53:09.752Z,98176.48
2023-12-26T14:58:51.580Z,98183.69
2023-12-26T15:03:58.342Z,98187.99
2023-12-26T15:09:05.207Z,98188.31
2023-12-26T15:14:31.161Z,98186.80
2023-12-26T15:19:40.505Z,98199.88
2023-12-26T15:24:46.443Z,98206.30
2023-12-26T15:29:52.201Z,98207.44
2023-12-26T15:34:57.902Z,98217.43
2023-12-26T15:40:04.215Z,98221.48
2023-12-26T15:45:11.776Z,98227.32
2023-12-26T15:50:17.934Z,98229.42
2023-12-26T15:55:23.672Z,98235.63
2023-12-26T16:00:29.670Z,98234.58
2023-12-26T16:05:36.587Z,98247.21
2023-12-26T16:10:43.963Z,98257.54
2023-12-26T16:15:50.418Z,98270.58
2023-12-26T16:20:56.745Z,98292.95
2023-12-26T16:26:04.488Z,98321.55
2023-12-26T16:31:10.305Z,98334.76
2023-12-26T16:36:14.834Z,98324.84
2023-12-26T16:41:20.572Z,98327.98
2023-12-26T16:46:26.446Z,98325.25
2023-12-26T16:51:32.233Z,98318.85
2023-12-26T16:56:38.071Z,98318.27
2023-12-26T17:01:46.457Z,98320.19
2023-12-26T17:06:52.308Z,98330.81
2023-12-26T17:11:58.053Z,98342.53
2023-12-26T17:17:03.872Z,98348.64
2023-12-26T17:22:12.366Z,98356.50
2023-12-26T17:27:18.457Z,98359.52
2023-12-26T17:32:25.756Z,98356.81
2023-12-26T17:37:31.638Z,98364.34
2023-12-26T17:42:37.318Z,98369.41
2023-12-26T17:47:44.146Z,98389.61
2023-12-26T17:52:52.057Z,98395.80
2023-12-26T17:57:58.761Z,98402.15
2023-12-26T18:03:04.772Z,98402.61
2023-12-26T18:08:10.613Z,98401.61
2023-12-26T18:13:16.311Z,98406.14
2023-12-26T18:18:22.356Z,98405.31
2023-12-26T18:23:29.085Z,98415.39
2023-12-26T18:28:34.826Z,98418.98
2023-12-26T18:33:40.749Z,98414.64
2023-12-26T18:38:45.177Z,98417.48
2023-12-26T18:43:50.860Z,98417.86
2023-12-26T18:48:56.823Z,98417.29
2023-12-26T18:54:02.877Z,98418.81
2023-12-26T18:59:09.014Z,98422.66
2023-12-26T19:04:15.016Z,98433.63
2023-12-26T19:09:21.048Z,98445.48
2023-12-26T19:14:26.760Z,98438.80
2023-12-26T19:19:33.019Z,98445.27
2023-12-26T19:24:38.794Z,98451.27
2023-12-26T19:29:44.625Z,98452.04
2023-12-26T19:34:50.642Z,98456.45
2023-12-26T19:39:56.751Z,98472.42
2023-12-26T19:45:02.480Z,98488.87
2023-12-26T19:50:09.292Z,98492.77
2023-12-26T19:55:15.040Z,98489.53
2023-12-26T20:00:21.143Z,98505.59
2023-12-26T20:05:26.878Z,98530.02
2023-12-26T20:10:32.644Z,98554.03
2023-12-26T20:15:38.574Z,98551.11
2023-12-26T20:20:44.755Z,98548.76
2023-12-26T20:25:48.947Z,98552.47
2023-12-26T20:30:54.654Z,98559.25
2023-12-26T20:36:00.362Z,98557.25
2023-12-26T20:41:06.935Z,98558.38
2023-12-26T20:46:15.547Z,98555.50
2023-12-26T20:51:22.936Z,98569.08
2023-12-26T20:56:28.948Z,98569.60
2023-12-26T21:01:34.905Z,98576.31
2023-12-26T21:06:42.363Z,98584.52
2023-12-26T21:11:47.971Z,98596.77
2023-12-26T21:16:53.570Z,98598.41
2023-12-26T21:21:59.246Z,98597.88
2023-12-26T21:27:05.132Z,98599.05
2023-12-26T21:32:10.801Z,98604.17
2023-12-26T21:37:16.669Z,98610.09
2023-12-26T21:42:22.354Z,98606.67
2023-12-26T21:47:29.745Z,98613.79
2023-12-26T21:52:35.367Z,98625.98
2023-12-26T21:57:41.481Z,98632.60
2023-12-26T22:02:47.199Z,98635.04
2023-12-26T22:07:53.166Z,98640.98
2023-12-26T22:12:58.905Z,98644.08
2023-12-26T22:18:05.478Z,98645.90
2023-12-26T22:23:11.593Z,98642.71
2023-12-26T22:28:17.800Z,98650.24
2023-12-26T22:33:23.680Z,98662.42
2023-12-26T22:38:29.395Z,98678.61
2023-12-26T22:43:37.029Z,98677.61
2023-12-26T22:48:43.164Z,98679.04
2023-12-26T22:53:47.895Z,98682.84
2023-12-26T22:58:53.498Z,98690.39
2023-12-26T23:03:59.273Z,98685.92
2023-12-26T23:09:05.557Z,98693.20
2023-12-26T23:14:10.918Z,98690.27
2023-12-26T23:19:17.114Z,98686.14
2023-12-26T23:24:21.263Z,98687.13
2023-12-26T23:29:27.587Z,98696.69
2023-12-26T23:34:43.499Z,98700.25
2023-12-26T23:39:53.818Z,98705.73
2023-12-26T23:44:59.502Z,98706.63
2023-12-26T23:50:05.447Z,98715.52
2023-12-26T23:55:11.975Z,98722.65
